Terminal Aerodrome Forecast
Issued by NWS Wilmington, NC

Current Version | Previous Version | Text Only | Print | Product List | Glossary On
Versions: 1 2 3 4 5 6 7 8 9 10 11 12 13 14 15 16 17 18 19 20
000
FTUS42 KILM 051152 CCA
TAFMYR
TAF COR
KMYR 051152Z 0512/0612 03005KT 2SM BR BKN004
      TEMPO 0512/0514 4SM BR BKN012
     FM051400 05010KT P6SM BKN040
     FM051900 09012KT P6SM BKN060
     FM052330 06006KT P6SM BKN120=

USA.gov is the U.S. government's official web portal to all federal, state and local government web resources and services.